FEFF Airport Information

Runway Information
Runway 17 Length 8530 ft width 148 ft
Elevation 1208 ft Threshold 0 ft Heading 165
Runway 35 Length 8530 ft Width 148 ft
Elevation 1182 ft Threshold 0 ft Heading 345
Airport Frequencies
Type A/G Name RDO Frequency 655.9 MHZ
Type TWR Name TWR Frequency 119.7 MHZ
Airport Navaids
Type VOR-DME Name Bangui M Poko Frequency 117300 KHZ
Airport Weather Information & NOTAM
ADDS - METARS form results

(0807 UTC 20 May 2022)
Data provider http://aviationweather.gov/metar/data/
 
Forecast for: FEFF (BANGUI/M'POKO (M, CF)
Text: TAF FEFF 200500Z 2006/2112 VRB03KT 8000 -TSRA BKN010 FEW033CB
Forecast period: 0600 to 1100 UTC 20 May 2022
Forecast type: FROM: standard forecast or significant change
Winds: variable direction winds at 3 MPH (3 knots; 1.5 m/s)
Visibility: 5 miles (8 km)
Ceiling: 1000 feet AGL
Clouds: broken clouds at 1000 feet AGL
few clouds at 3300 feet AGL
Weather: -TSRA  (light rain associated with thunderstorm(s))
Text: BECMG 2011/2013 CAVOK
Forecast period: 1100 UTC 20 May 2022 to 1200 UTC 21 May 2022
Forecast type: BECOMING: Conditions expected to become as follows by 1300 UTC 20 May 2022
Winds: variable direction winds at 3 MPH (3 knots; 1.5 m/s)
Visibility: 6 or more miles (10+ km)
Ceiling: unknown
Clouds: missing
Weather: NSW  (no significant weather)